Portada
METAR-TAF:

METAR-TAF

Aeropuertos :

Luni

Sarzana, Italia

latitud: 44-05N, longitud: 009-59E, altitud: 9 m

Observación

El informe se hizo hace 34 minutos, a las 09:55 UTC
Viento 2 kt del este-sureste
Temperatura 15°C
Humedad 39%
Presión 1017 hPa
Visibilidad 10 km o más
sin nubes por debajo de 1500 m y sin presencia de cumulonimbus.

METAR: LIQW 160955Z 12002KT CAVOK 15/01 Q1017 RMK SCT SCT080 VIS MIN 9999 WIND THR18 22004KT BLU

Hora: 12:29 (10:29 UTC)

Pronóstico

El informe se hizo hace 2 horas y 29 minutos, a las 08:00 UTC
Pronóstico válido del 16 a las 09 UTC al 16 a las 18 UTC
Viento 5 kt con dirección variable
Visibilidad 10 km o más
Nubes dispersas a una altura de 5000 ft
Probabilidad 40% :
Temporalmente
del 16 a las 09 UTC al 16 a las 15 UTC
Visibilidad: 5000 m
Cielo nuboso a una altura de 2000 ft
lluvia, neblina

TAF: LIQW 160800Z 1609/1618 VRB05KT 9999 SCT050 PROB40 TEMPO 1609/1615 5000 RA BR BKN020

Observaciones y pronósticos meteorológicos de más de 4000 aeropuertos (mensajes METAR y TAF).

Los puntos amarillos y rojos representan las estaciones disponibles.

Ponga el ratón en el punto deseado para ver el nombre de la estación.

Haga clic para ver las observaciones y los pronósticos meteorológicos.

Para cambiar el mapa : haga clic en los botones verdes con una cruz de color negro para hacer un zoom, en el botón verde con un guión para alejar o en las flechas verdes para mapas adyacentes.


METAR-TAF: